Time;durP1;ratioP1;P1;durP2;ratioP2;P2;SDS_P1;SDS_P2;PMS_P1;PMS_P2;Temp;Humidity;BMP_temperature;BMP_pressure;BME280_temperature;BME280_humidity;BME280_pressure;Samples;Min_cycle;Max_cycle;Signal;HPM_P1;HPM_P2
2021/05/11 00:00:30;;;;;;;5.40;4.90;;;;;;;12.75;95.80;95993.53;5014312;28;20317;-60
2021/05/11 00:02:56;;;;;;;5.20;4.70;;;;;;;12.57;97.09;95991.38;5031705;28;20631;-60
2021/05/11 00:05:22;;;;;;;4.60;4.10;;;;;;;12.76;96.12;95976.72;5032103;28;20214;-60
2021/05/11 00:07:47;;;;;;;5.07;4.57;;;;;;;12.78;95.85;95959.59;5032579;28;20270;-60
2021/05/11 00:10:13;;;;;;;7.30;4.87;;;;;;;12.65;96.66;95965.34;5032465;28;20545;-60
2021/05/11 00:12:38;;;;;;;5.57;4.40;;;;;;;12.57;96.66;95963.25;5032440;28;20210;-60
2021/05/11 00:15:05;;;;;;;4.97;4.30;;;;;;;12.49;97.93;95956.63;5031549;28;20190;-60
2021/05/11 00:17:31;;;;;;;6.50;4.93;;;;;;;12.59;97.33;95965.63;5019142;28;20589;-60
2021/05/11 00:19:58;;;;;;;7.73;5.53;;;;;;;12.60;97.33;95954.03;5030959;28;20182;-60
2021/05/11 00:22:23;;;;;;;7.87;5.57;;;;;;;12.36;98.79;95961.59;5014849;28;20186;-60
2021/05/11 00:24:49;;;;;;;6.37;5.33;;;;;;;12.29;99.32;95964.47;5032015;28;20241;-61
2021/05/11 00:27:14;;;;;;;7.40;5.50;;;;;;;12.22;100.00;95957.84;5014106;28;20195;-61
2021/05/11 00:29:40;;;;;;;8.33;5.60;;;;;;;12.26;99.76;95943.94;5031633;28;20178;-60
2021/05/11 00:32:05;;;;;;;9.20;6.17;;;;;;;12.44;98.54;95946.09;5030944;28;20615;-61
2021/05/11 00:34:30;;;;;;;8.00;5.43;;;;;;;12.41;98.34;95951.09;5031855;28;20178;-60
2021/05/11 00:36:56;;;;;;;7.03;5.50;;;;;;;12.26;99.44;95956.31;5013280;28;20183;-60
2021/05/11 00:39:21;;;;;;;7.53;5.50;;;;;;;12.36;98.73;95965.03;5032047;28;20658;-60
2021/05/11 00:41:46;;;;;;;7.43;5.17;;;;;;;12.55;97.77;95962.69;5031631;28;20191;-60
2021/05/11 00:44:20;;;;;;;6.00;4.80;;;;;;;12.55;97.40;95964.53;5031395;28;20249;-60
2021/05/11 00:46:54;;;;;;;5.60;4.63;;;;;;;12.45;98.09;95960.03;5032002;28;20185;-61
2021/05/11 00:49:19;;;;;;;8.37;5.23;;;;;;;12.63;97.31;95959.56;5031879;28;20202;-60
2021/05/11 00:51:45;;;;;;;6.03;4.83;;;;;;;12.68;96.76;95937.75;5014177;28;20234;-60
2021/05/11 00:54:11;;;;;;;7.13;5.20;;;;;;;12.50;97.69;95949.53;5031021;28;20179;-60
2021/05/11 00:56:37;;;;;;;6.37;5.13;;;;;;;12.47;98.25;95957.97;5031127;28;20186;-61
2021/05/11 00:59:03;;;;;;;6.10;4.67;;;;;;;12.54;97.75;95971.63;5031087;28;20689;-61
2021/05/11 01:01:28;;;;;;;7.80;5.20;;;;;;;12.66;96.93;95964.31;5031625;28;20234;-60
2021/05/11 01:03:53;;;;;;;6.73;5.20;;;;;;;12.62;96.86;95955.38;5029676;28;20186;-60
2021/05/11 01:06:19;;;;;;;6.53;5.07;;;;;;;12.73;95.93;95948.28;5031520;28;20209;-60
2021/05/11 01:08:44;;;;;;;6.17;5.20;;;;;;;12.71;95.77;95938.03;5031511;28;20186;-60
2021/05/11 01:11:09;;;;;;;6.53;4.63;;;;;;;12.57;96.45;95921.19;5031082;28;20786;-60
2021/05/11 01:13:35;;;;;;;7.13;5.03;;;;;;;12.59;96.72;95913.03;5031358;28;20209;-60
2021/05/11 01:16:00;;;;;;;5.97;4.87;;;;;;;12.66;96.46;95901.22;5030045;28;20555;-60
2021/05/11 01:18:29;;;;;;;6.87;5.30;;;;;;;12.65;96.18;95901.50;5031055;28;20216;-60
2021/05/11 01:20:58;;;;;;;7.63;5.53;;;;;;;12.53;97.16;95912.25;5030389;28;20205;-60
2021/05/11 01:25:52;;;;;;;9.33;5.37;;;;;;;12.45;97.80;95904.84;5030938;28;20183;-60
2021/05/11 02:24:03;;;;;;;7.57;5.50;;;;;;;12.65;96.90;95915.41;5030806;28;20240;-60
2021/05/11 02:26:28;;;;;;;5.80;4.83;;;;;;;12.63;96.84;95907.00;5016758;28;20190;-60
2021/05/11 02:28:54;;;;;;;6.60;5.20;;;;;;;12.43;98.19;95891.97;5034159;28;20186;-60
2021/05/11 02:31:19;;;;;;;6.60;4.67;;;;;;;12.61;97.30;95893.31;5034403;28;20206;-60
2021/05/11 02:33:44;;;;;;;6.70;4.90;;;;;;;12.45;97.94;95895.13;5034379;28;20533;-60
2021/05/11 02:36:10;;;;;;;9.20;5.93;;;;;;;12.45;97.87;95892.50;5033334;28;20186;-60
2021/05/11 02:38:35;;;;;;;8.10;5.57;;;;;;;12.09;100.00;95881.09;5016520;28;20264;-60
2021/05/11 02:41:00;;;;;;;6.17;5.20;;;;;;;12.23;99.84;95891.13;5033472;28;20178;-60
2021/05/11 02:43:30;;;;;;;7.70;4.87;;;;;;;12.22;100.00;95902.69;5034328;28;20187;-60
2021/05/11 02:45:56;;;;;;;6.87;5.20;;;;;;;12.26;99.67;95904.53;5033858;28;20533;-60
2021/05/11 02:48:21;;;;;;;7.93;5.43;;;;;;;12.34;99.27;95908.50;5034194;28;20191;-60
2021/05/11 02:50:47;;;;;;;7.80;5.80;;;;;;;12.21;100.00;95916.84;5032899;28;20209;-60
2021/05/11 02:53:12;;;;;;;7.60;5.10;;;;;;;12.34;99.67;95914.56;5033364;28;20276;-60
2021/05/11 02:55:38;;;;;;;8.40;5.27;;;;;;;12.35;99.16;95915.34;5033610;28;20190;-60
2021/05/11 02:58:03;;;;;;;6.57;4.67;;;;;;;12.28;99.58;95920.84;5033353;28;20631;-60
2021/05/11 03:00:29;;;;;;;5.67;4.50;;;;;;;12.37;98.97;95916.66;5015442;28;20218;-60
2021/05/11 03:02:55;;;;;;;7.27;4.67;;;;;;;12.38;98.19;95915.59;5033820;28;20182;-60
2021/05/11 03:05:21;;;;;;;7.63;4.53;;;;;;;12.40;98.43;95904.84;5014997;28;20650;-60
2021/05/11 03:07:46;;;;;;;6.37;4.80;;;;;;;12.23;99.56;95901.63;5033971;28;20191;-60
2021/05/11 03:10:13;;;;;;;6.30;4.80;;;;;;;12.21;99.53;95901.09;5033286;28;20214;-60
2021/05/11 03:12:39;;;;;;;4.63;3.90;;;;;;;12.31;99.59;95906.41;5033901;28;20217;-60
2021/05/11 03:15:06;;;;;;;5.13;3.93;;;;;;;12.38;99.01;95904.31;5033315;28;20183;-60
2021/05/11 03:17:31;;;;;;;5.20;3.90;;;;;;;12.42;98.60;95905.38;5033548;28;20599;-60
2021/05/11 03:19:57;;;;;;;5.30;4.03;;;;;;;12.18;99.76;95909.50;5032883;28;20182;-60
2021/05/11 03:22:22;;;;;;;7.33;4.43;;;;;;;12.30;99.50;95908.25;5033965;28;20191;-60
2021/05/11 03:24:48;;;;;;;6.10;4.30;;;;;;;12.24;99.50;95896.13;5033768;28;20546;-60
2021/05/11 03:27:14;;;;;;;5.03;4.40;;;;;;;12.30;99.10;95900.34;5032931;28;20193;-60
2021/05/11 03:29:41;;;;;;;3.87;3.40;;;;;;;12.22;99.73;95894.81;5033220;28;20211;-60
2021/05/11 03:32:07;;;;;;;4.70;3.90;;;;;;;12.39;98.88;95890.13;5032742;28;20217;-60
2021/05/11 03:34:34;;;;;;;7.10;4.57;;;;;;;12.34;98.67;95876.97;5033280;28;20907;-60
2021/05/11 03:36:59;;;;;;;6.13;4.07;;;;;;;12.30;99.29;95879.34;5030771;28;20197;-60
2021/05/11 03:39:25;;;;;;;5.90;4.20;;;;;;;12.15;100.00;95881.13;5032817;28;20186;-60
2021/05/11 03:41:56;;;;;;;6.20;4.53;;;;;;;12.11;100.00;95886.09;5015488;28;20245;-60
2021/05/11 03:44:26;;;;;;;5.90;3.97;;;;;;;12.25;100.00;95881.16;5033060;28;20233;-60
2021/05/11 03:46:51;;;;;;;6.63;4.50;;;;;;;12.11;100.00;95874.78;5032575;28;20186;-60
2021/05/11 03:49:16;;;;;;;7.40;4.87;;;;;;;12.16;100.00;95870.34;5030530;28;20368;-60
2021/05/11 03:51:42;;;;;;;8.27;5.10;;;;;;;12.02;100.00;95864.03;5032894;28;20213;-60
2021/05/11 03:54:09;;;;;;;8.83;4.77;;;;;;;11.98;100.00;95866.34;5031438;28;20175;-60
2021/05/11 03:56:36;;;;;;;7.67;5.30;;;;;;;12.25;100.00;95857.50;5014801;28;20665;-60
2021/05/11 03:59:05;;;;;;;8.03;5.60;;;;;;;12.09;100.00;95854.81;5031804;28;20229;-60
2021/05/11 04:01:31;;;;;;;9.63;5.53;;;;;;;12.18;100.00;95860.38;5032621;28;20250;-60
2021/05/11 04:03:57;;;;;;;8.93;6.30;;;;;;;12.27;99.87;95858.03;5013631;28;20222;-61
2021/05/11 04:06:23;;;;;;;9.00;6.17;;;;;;;12.06;100.00;95860.59;5014201;28;20265;-60
2021/05/11 04:08:56;;;;;;;11.33;6.40;;;;;;;12.08;100.00;95868.25;5032589;28;20174;-60
2021/05/11 04:14:16;;;;;;;9.00;6.20;;;;;;;12.17;100.00;95855.38;5032432;28;20573;-60
2021/05/11 04:16:42;;;;;;;10.70;6.27;;;;;;;12.21;100.00;95848.56;5020279;28;20186;-60
2021/05/11 04:19:08;;;;;;;10.23;6.70;;;;;;;12.26;100.00;95853.84;5031513;28;20214;-60
2021/05/11 04:21:34;;;;;;;9.73;6.27;;;;;;;12.30;100.00;95853.06;5032343;28;20199;-60
2021/05/11 04:23:59;;;;;;;10.23;6.53;;;;;;;12.33;100.00;95851.75;5030646;28;20201;-60
2021/05/11 04:26:25;;;;;;;11.47;7.80;;;;;;;12.45;99.65;95857.53;5014333;28;20285;-60
2021/05/11 04:28:51;;;;;;;10.13;6.30;;;;;;;12.29;100.00;95851.47;5031540;28;20761;-60
2021/05/11 04:31:19;;;;;;;9.27;6.67;;;;;;;12.12;100.00;95847.50;5031458;28;20282;-60
2021/05/11 04:33:45;;;;;;;12.10;6.40;;;;;;;12.15;100.00;95854.88;5032214;28;20631;-60
2021/05/11 04:36:11;;;;;;;8.93;6.87;;;;;;;12.36;100.00;95853.88;5031114;28;20186;-60
2021/05/11 04:38:38;;;;;;;10.77;7.30;;;;;;;12.25;100.00;95845.16;5014458;28;20182;-60
2021/05/11 04:41:06;;;;;;;11.47;6.80;;;;;;;12.18;100.00;95838.56;5031449;28;20570;-60
2021/05/11 04:43:34;;;;;;;12.13;7.53;;;;;;;12.11;100.00;95841.44;5022446;28;20221;-60
2021/05/11 04:46:13;;;;;;;10.80;7.03;;;;;;;12.16;100.00;95841.44;5030810;28;20175;-61
2021/05/11 04:48:39;;;;;;;11.47;7.40;;;;;;;12.16;100.00;95849.34;5031629;28;20206;-60
2021/05/11 04:51:05;;;;;;;11.63;7.53;;;;;;;12.15;100.00;95855.63;5030956;28;20386;-61
2021/05/11 04:53:30;;;;;;;13.67;7.90;;;;;;;12.11;100.00;95851.94;5030876;28;20190;-60
2021/05/11 04:55:56;;;;;;;13.67;8.37;;;;;;;11.98;100.00;95852.47;5031034;28;20202;-61
2021/05/11 04:58:21;;;;;;;10.97;7.90;;;;;;;12.08;100.00;95865.63;5013131;28;20182;-60
2021/05/11 05:00:48;;;;;;;13.27;7.93;;;;;;;12.19;100.00;95883.00;5031314;28;20227;-61
2021/05/11 05:03:15;;;;;;;14.00;8.47;;;;;;;12.40;100.00;95881.19;5030126;28;20628;-61
2021/05/11 05:05:43;;;;;;;14.90;8.40;;;;;;;12.53;100.00;95888.59;5031062;28;20213;-60
2021/05/11 05:08:09;;;;;;;12.37;7.20;;;;;;;12.32;100.00;95884.31;5029889;28;20182;-60
2021/05/11 05:10:34;;;;;;;11.40;7.87;;;;;;;12.47;100.00;95873.84;5031345;28;20190;-60
2021/05/11 05:13:00;;;;;;;12.53;7.80;;;;;;;12.21;100.00;95872.19;5030258;28;20181;-60
2021/05/11 05:15:25;;;;;;;11.63;7.60;;;;;;;12.27;100.00;95861.44;5031144;28;20608;-60
2021/05/11 05:17:50;;;;;;;13.70;7.50;;;;;;;12.35;100.00;95850.44;5031233;28;20214;-60
2021/05/11 05:20:16;;;;;;;14.40;7.50;;;;;;;12.28;100.00;95846.47;5030434;28;20186;-60
2021/05/11 05:22:42;;;;;;;10.90;7.13;;;;;;;12.13;100.00;95839.34;5031389;28;20182;-60
2021/05/11 05:25:19;;;;;;;13.60;7.50;;;;;;;12.12;100.00;95834.34;5030027;28;20191;-60
2021/05/11 05:27:55;;;;;;;11.23;7.27;;;;;;;12.26;100.00;95838.84;5031046;28;20254;-61
2021/05/11 05:30:22;;;;;;;10.67;6.87;;;;;;;12.35;100.00;95860.94;5030018;28;20187;-60
2021/05/11 05:32:47;;;;;;;11.30;6.33;;;;;;;12.24;100.00;95875.13;5030722;28;20202;-62
2021/05/11 05:35:13;;;;;;;10.70;6.73;;;;;;;12.24;100.00;95876.94;5030026;28;20685;-62
2021/05/11 05:37:38;;;;;;;10.77;6.97;;;;;;;12.40;100.00;95881.19;5031138;28;20682;-60
2021/05/11 05:40:06;;;;;;;12.63;7.23;;;;;;;12.58;100.00;95872.81;5030107;28;20190;-61
2021/05/11 05:42:32;;;;;;;10.37;6.67;;;;;;;12.66;98.90;95863.59;5030920;28;20593;-60
2021/05/11 05:44:57;;;;;;;10.83;6.50;;;;;;;12.79;97.74;95865.72;5030761;28;20269;-61
2021/05/11 05:47:23;;;;;;;11.97;7.17;;;;;;;12.31;100.00;95859.09;5027249;28;20658;-61
2021/05/11 05:49:52;;;;;;;9.57;6.53;;;;;;;12.37;100.00;95858.84;5030323;28;20636;-62
2021/05/11 05:52:22;;;;;;;10.90;6.57;;;;;;;12.60;99.19;95867.28;5012116;28;20191;-61
2021/05/11 05:54:47;;;;;;;15.17;6.50;;;;;;;12.73;97.93;95879.91;5030227;28;20187;-61
2021/05/11 05:57:14;;;;;;;9.00;6.10;;;;;;;12.72;97.81;95875.72;5011596;28;20569;-61
2021/05/11 05:59:41;;;;;;;8.60;6.50;;;;;;;12.80;97.44;95868.09;5014350;28;20266;-61
2021/05/11 06:02:10;;;;;;;9.77;6.90;;;;;;;12.73;97.51;95877.28;5026974;28;20230;-63
2021/05/11 06:04:36;;;;;;;9.87;6.60;;;;;;;12.80;97.09;95878.63;5034217;28;20178;-61
2021/05/11 06:07:01;;;;;;;8.07;6.20;;;;;;;12.84;96.37;95874.41;5033561;28;20220;-62
2021/05/11 06:09:27;;;;;;;9.30;6.10;;;;;;;13.02;95.20;95875.72;5017181;28;20179;-61
2021/05/11 06:19:28;;;;;;;7.33;5.13;;;;;;;12.90;96.05;95859.41;5032521;28;20163;-62
2021/05/11 06:21:53;;;;;;;9.73;6.17;;;;;;;12.79;96.29;95849.94;5033830;28;20617;-62
2021/05/11 06:24:19;;;;;;;8.33;6.43;;;;;;;12.74;96.63;95856.00;5033639;28;20194;-62
2021/05/11 06:26:48;;;;;;;9.33;6.33;;;;;;;12.85;96.32;95841.81;5034284;28;20182;-62
2021/05/11 06:29:14;;;;;;;8.33;6.27;;;;;;;12.92;95.60;95844.16;5033229;28;20194;-60
2021/05/11 06:31:40;;;;;;;8.90;6.17;;;;;;;12.87;95.65;95852.81;5033850;28;20241;-62
2021/05/11 06:34:07;;;;;;;7.77;6.17;;;;;;;12.67;96.75;95842.31;5015585;28;20210;-62
2021/05/11 06:36:33;;;;;;;7.57;5.90;;;;;;;12.80;96.46;95830.50;5033805;28;20217;-63
2021/05/11 06:38:58;;;;;;;9.10;6.37;;;;;;;12.50;98.24;95841.78;5033455;28;20218;-61
2021/05/11 06:41:25;;;;;;;9.73;6.27;;;;;;;12.68;97.78;95859.69;5014911;28;20521;-62
2021/05/11 06:43:54;;;;;;;10.63;6.23;;;;;;;12.84;97.05;95860.47;5015953;28;20214;-62
2021/05/11 06:53:55;;;;;;;9.40;6.73;;;;;;;12.98;94.04;95864.16;5033397;28;20290;-61
2021/05/11 06:56:23;;;;;;;10.37;6.50;;;;;;;13.25;92.91;95862.06;5032234;28;20244;-62
2021/05/11 06:58:49;;;;;;;7.17;5.97;;;;;;;13.26;93.16;95847.81;5011528;28;20599;-62
2021/05/11 07:01:18;;;;;;;8.13;6.27;;;;;;;13.34;92.16;95838.59;5032635;28;20234;-63
2021/05/11 07:03:44;;;;;;;8.70;6.40;;;;;;;13.13;92.50;95851.03;5032752;28;20222;-62
2021/05/11 07:06:12;;;;;;;9.53;6.93;;;;;;;13.26;92.06;95837.28;5031807;28;20244;-62
2021/05/11 07:08:42;;;;;;;8.43;5.87;;;;;;;13.19;94.10;95818.38;5033270;28;20188;-62
2021/05/11 07:11:13;;;;;;;10.23;6.90;;;;;;;13.23;92.86;95816.00;5014820;28;20213;-62
2021/05/11 07:13:38;;;;;;;10.27;7.57;;;;;;;13.01;93.99;95829.41;5032743;28;20173;-62
2021/05/11 07:16:04;;;;;;;8.80;6.33;;;;;;;13.10;93.98;95829.66;5032493;28;20186;-61
2021/05/11 07:18:32;;;;;;;7.93;6.23;;;;;;;13.28;93.08;95831.78;5033029;28;20588;-61
2021/05/11 07:20:59;;;;;;;9.10;6.20;;;;;;;13.40;91.57;95834.91;5033129;28;20186;-62
2021/05/11 07:23:26;;;;;;;8.03;5.40;;;;;;;13.48;91.13;95841.47;5031805;28;20666;-61
2021/05/11 07:30:51;;;;;;;7.87;5.47;;;;;;;13.09;92.83;95813.13;5016393;28;20674;-61
2021/05/11 07:33:17;;;;;;;7.70;5.33;;;;;;;13.12;93.47;95801.28;5031859;28;20174;-62
2021/05/11 07:35:43;;;;;;;7.63;5.43;;;;;;;13.18;92.46;95794.97;5032474;28;20262;-61
2021/05/11 07:38:08;;;;;;;6.83;5.37;;;;;;;13.51;91.19;95793.53;5032108;28;20583;-61
2021/05/11 07:40:34;;;;;;;7.50;5.40;;;;;;;13.68;90.05;95771.09;5032433;28;20257;-61
2021/05/11 07:43:00;;;;;;;7.70;5.57;;;;;;;13.16;93.15;95779.44;5014829;28;20179;-62
2021/05/11 07:45:45;;;;;;;6.63;5.80;;;;;;;13.13;93.09;95784.44;5031641;28;20658;-62
2021/05/11 07:48:20;;;;;;;9.10;5.97;;;;;;;13.26;92.96;95786.53;5025069;28;20174;-62
2021/05/11 08:15:41;;;;;;;9.10;5.70;;;;;;;14.17;86.10;95828.25;5031328;28;20225;-61
2021/05/11 08:18:04;;;;;;;6.43;5.20;;;;;;;14.36;85.09;95823.16;5021176;28;20644;-61
2021/05/11 08:28:59;;;;;;;6.30;4.97;;;;;;;14.00;86.89;95807.53;4950770;29;20186;-61
2021/05/11 08:31:25;;;;;;;6.20;4.40;;;;;;;14.30;85.58;95806.59;5013842;28;20229;-61
2021/05/11 08:33:50;;;;;;;4.70;4.23;;;;;;;14.32;84.55;95793.13;5031715;28;20179;-61
2021/05/11 08:36:15;;;;;;;5.93;4.77;;;;;;;14.42;83.78;95783.34;5030701;28;20589;-61
2021/05/11 08:38:41;;;;;;;4.53;4.07;;;;;;;14.22;84.39;95766.81;5031642;28;20182;-61
2021/05/11 08:41:06;;;;;;;4.97;4.30;;;;;;;14.13;85.19;95764.78;5031029;28;20642;-62
2021/05/11 08:43:35;;;;;;;5.00;4.47;;;;;;;14.03;85.75;95758.81;5031491;28;20210;-62
2021/05/11 08:46:03;;;;;;;4.53;4.13;;;;;;;14.43;84.71;95760.41;5031175;28;20190;-61
2021/05/11 08:48:30;;;;;;;5.07;4.33;;;;;;;14.43;84.22;95769.06;5031175;28;20182;-61
2021/05/11 08:51:15;;;;;;;5.20;4.50;;;;;;;14.82;82.34;95778.81;5031780;28;20282;-61
2021/05/11 09:50:54;;;;;;;3.47;3.17;;;;;;;14.90;79.73;95826.47;5024391;28;20678;-61
2021/05/11 10:37:05;;;;;;;3.37;3.07;;;;;;;16.18;72.61;95781.72;5030358;28;20175;-63
2021/05/11 10:49:32;;;;;;;4.03;3.70;;;;;;;17.02;68.17;95804.50;5034244;28;20225;-62
2021/05/11 10:52:13;;;;;;;3.63;3.33;;;;;;;17.18;67.83;95797.06;5033412;28;20214;-62
2021/05/11 10:54:44;;;;;;;3.50;3.20;;;;;;;17.46;66.97;95797.88;5033439;28;20254;-62
2021/05/11 10:57:29;;;;;;;4.40;3.63;;;;;;;17.23;67.18;95806.78;5033972;28;20650;-60
2021/05/11 11:00:15;;;;;;;6.90;3.97;;;;;;;17.36;67.11;95808.69;5018340;28;20182;-60
2021/05/11 11:02:45;;;;;;;7.80;4.05;;;;;;;17.58;65.86;95814.09;5033978;28;20178;-61
2021/05/11 11:05:11;;;;;;;5.72;4.18;;;;;;;17.69;65.46;95817.34;5032787;28;20267;-61
2021/05/11 11:07:39;;;;;;;6.68;4.40;;;;;;;17.78;64.91;95812.91;5033795;28;20179;-60
2021/05/11 11:10:07;;;;;;;7.50;5.03;;;;;;;17.90;64.70;95810.56;5034094;28;20179;-61
2021/05/11 11:12:41;;;;;;;4.70;4.15;;;;;;;17.95;64.37;95813.09;5032963;28;20207;-61
2021/05/11 11:15:15;;;;;;;5.82;4.60;;;;;;;17.69;64.97;95812.06;5033567;28;20260;-61
2021/05/11 11:17:47;;;;;;;5.97;4.68;;;;;;;17.95;64.46;95814.97;5033943;28;20178;-61
2021/05/11 11:20:14;;;;;;;6.97;5.05;;;;;;;17.54;65.74;95802.50;5033207;28;20301;-60
2021/05/11 11:25:25;;;;;;;9.45;5.72;;;;;;;17.99;64.63;95805.34;5031990;28;20566;-61
2021/05/11 11:27:51;;;;;;;5.97;5.05;;;;;;;18.20;63.89;95804.63;5033725;28;20187;-61
2021/05/11 11:30:18;;;;;;;6.10;5.10;;;;;;;18.45;63.34;95805.13;5033201;28;20198;-61
2021/05/11 11:32:43;;;;;;;8.30;6.00;;;;;;;18.39;63.31;95807.09;5033354;28;20249;-61
2021/05/11 11:35:11;;;;;;;7.88;5.40;;;;;;;18.14;64.38;95816.44;5032397;28;20183;-60
2021/05/11 11:37:37;;;;;;;6.47;4.95;;;;;;;17.83;64.92;95810.19;5033323;28;20266;-61
2021/05/11 11:40:09;;;;;;;7.55;5.15;;;;;;;17.85;65.16;95826.56;5033430;28;20201;-60
2021/05/11 11:42:43;;;;;;;5.70;4.80;;;;;;;17.97;64.70;95841.97;5032991;28;20240;-61
2021/05/11 11:45:21;;;;;;;8.90;6.03;;;;;;;17.48;65.65;95837.34;5032514;28;20185;-61
2021/05/11 11:48:00;;;;;;;6.38;4.80;;;;;;;17.32;67.05;95842.13;5033516;28;20511;-61
2021/05/11 11:50:26;;;;;;;6.07;4.63;;;;;;;17.79;65.83;95843.66;5031928;28;20281;-61
2021/05/11 11:55:56;;;;;;;6.60;5.07;;;;;;;17.24;66.62;95848.09;5032388;28;20216;-61
2021/05/11 11:58:24;;;;;;;5.95;5.18;;;;;;;17.28;67.16;95847.22;5030610;28;20648;-61
2021/05/11 12:00:49;;;;;;;5.22;4.40;;;;;;;17.31;67.18;95846.66;5032346;28;20721;-61
2021/05/11 12:03:17;;;;;;;5.28;4.80;;;;;;;17.56;66.36;95845.38;5032116;28;20269;-62
2021/05/11 12:05:50;;;;;;;6.43;4.75;;;;;;;17.42;66.80;95831.34;5012621;28;20183;-62
2021/05/11 12:08:28;;;;;;;5.38;4.15;;;;;;;17.68;66.12;95831.69;5012672;28;20218;-61
2021/05/11 12:11:06;;;;;;;4.80;4.38;;;;;;;18.05;64.76;95831.47;5031161;28;20257;-62
2021/05/11 12:13:34;;;;;;;4.63;4.07;;;;;;;17.74;65.43;95833.94;5031231;28;20229;-63
2021/05/11 12:16:10;;;;;;;4.60;4.15;;;;;;;17.20;67.90;95818.75;5032039;28;20182;-63
2021/05/11 12:18:36;;;;;;;4.50;4.10;;;;;;;16.93;69.21;95813.41;5024793;28;20256;-63
2021/05/11 12:21:04;;;;;;;3.75;3.45;;;;;;;16.83;69.15;95821.53;5032149;28;20201;-63
2021/05/11 12:23:30;;;;;;;4.70;4.30;;;;;;;16.52;70.74;95821.97;5014591;28;20182;-63
2021/05/11 12:25:59;;;;;;;3.93;3.63;;;;;;;16.52;71.35;95829.88;5027454;28;20190;-63
2021/05/11 12:28:45;;;;;;;3.83;3.53;;;;;;;16.60;71.03;95837.22;5009036;28;20182;-63
2021/05/11 12:31:12;;;;;;;3.78;2.90;;;;;;;16.90;69.95;95845.75;5033397;28;20203;-63
2021/05/11 12:33:43;;;;;;;3.13;2.90;;;;;;;16.84;69.80;95852.19;5030729;28;20670;-63
2021/05/11 12:36:17;;;;;;;2.83;2.63;;;;;;;17.01;69.34;95855.88;5031405;28;20189;-63
2021/05/11 12:38:42;;;;;;;2.58;2.38;;;;;;;17.30;68.57;95854.88;5031875;28;20225;-64
2021/05/11 12:41:13;;;;;;;2.88;2.67;;;;;;;17.42;67.90;95853.34;5031700;28;20194;-63
2021/05/11 12:43:44;;;;;;;3.20;3.00;;;;;;;17.00;68.64;95856.16;5031219;28;20707;-63
2021/05/11 12:46:29;;;;;;;2.63;2.45;;;;;;;17.16;68.43;95851.41;5014376;28;20181;-63
2021/05/11 12:49:11;;;;;;;2.35;2.25;;;;;;;17.05;69.14;95864.81;5032044;28;20188;-64
2021/05/11 12:51:40;;;;;;;2.00;1.90;;;;;;;17.23;69.34;95855.25;5029770;28;20289;-63
2021/05/11 12:54:35;;;;;;;2.60;2.40;;;;;;;16.81;70.54;95848.28;5031871;28;20515;-64
2021/05/11 12:59:38;;;;;;;3.03;2.83;;;;;;;16.66;72.29;95837.94;5031250;28;20186;-62
2021/05/11 13:26:33;;;;;;;3.30;3.00;;;;;;;15.45;78.15;95879.81;4999121;28;20199;-63
2021/05/11 13:28:57;;;;;;;2.90;2.70;;;;;;;15.48;78.86;95886.41;5029326;28;20293;-63
2021/05/11 13:31:29;;;;;;;2.83;2.63;;;;;;;15.47;78.99;95884.81;5030003;28;20205;-64
2021/05/11 13:36:20;;;;;;;3.80;2.90;;;;;;;15.50;79.06;95890.31;5030374;28;20174;-63
2021/05/11 13:38:45;;;;;;;2.80;2.60;;;;;;;15.32;78.44;95896.31;5015716;28;20183;-64
2021/05/11 13:41:11;;;;;;;3.47;2.93;;;;;;;15.25;78.88;95898.50;5030656;28;20183;-63
2021/05/11 13:43:36;;;;;;;3.07;2.87;;;;;;;15.31;78.90;95900.81;5030812;28;20945;-63
2021/05/11 13:46:02;;;;;;;3.60;3.30;;;;;;;15.11;79.56;95900.19;5030318;28;20233;-63
2021/05/11 13:48:38;;;;;;;3.90;3.60;;;;;;;15.08;80.76;95908.66;5029987;28;20269;-63
2021/05/11 13:51:13;;;;;;;4.50;3.07;;;;;;;15.12;82.50;95913.09;5030401;28;20530;-63
2021/05/11 13:53:40;;;;;;;4.47;3.90;;;;;;;14.66;84.33;95909.19;5030280;28;20166;-64
2021/05/11 14:01:48;;;;;;;5.23;4.73;;;;;;;14.19;89.97;95909.69;5023632;28;20327;-63
2021/05/11 14:04:13;;;;;;;5.53;5.03;;;;;;;13.88;88.49;95906.38;5029826;28;20174;-63
2021/05/11 14:06:39;;;;;;;6.33;4.63;;;;;;;13.84;90.10;95902.72;5029649;28;20186;-63
2021/05/11 14:09:06;;;;;;;4.67;4.27;;;;;;;13.97;92.26;95904.78;5030237;28;20648;-63
2021/05/11 14:11:34;;;;;;;5.43;4.93;;;;;;;13.90;90.60;95899.00;4996255;28;20621;-63
2021/05/11 14:14:01;;;;;;;9.23;5.77;;;;;;;13.95;90.38;95906.88;5030590;28;20222;-66
2021/05/11 14:16:27;;;;;;;5.47;4.97;;;;;;;13.71;91.67;95907.47;5030022;28;20190;-63
2021/05/11 14:18:53;;;;;;;6.47;5.77;;;;;;;13.91;91.22;95906.66;5024565;28;20265;-64
2021/05/11 14:21:18;;;;;;;6.47;5.30;;;;;;;13.99;90.22;95894.75;5032257;28;20277;-64
2021/05/11 14:23:44;;;;;;;6.30;5.07;;;;;;;13.68;93.82;95894.06;5034258;28;20183;-63
2021/05/11 14:26:09;;;;;;;5.60;5.10;;;;;;;13.45;94.77;95894.66;5016913;28;20178;-64
2021/05/11 14:28:35;;;;;;;5.13;4.63;;;;;;;13.50;98.45;95905.97;5033656;28;20309;-63
2021/05/11 14:31:00;;;;;;;5.30;3.90;;;;;;;13.25;98.20;95900.75;5033946;28;20183;-63
2021/05/11 14:33:25;;;;;;;4.83;4.37;;;;;;;13.20;99.72;95900.75;5033904;28;20257;-63
2021/05/11 14:35:51;;;;;;;4.90;4.40;;;;;;;13.23;99.89;95900.19;5034088;28;20191;-64
2021/05/11 14:38:17;;;;;;;5.80;4.17;;;;;;;13.14;99.43;95899.97;5033421;28;20186;-63
2021/05/11 14:40:42;;;;;;;4.00;3.70;;;;;;;13.01;100.00;95897.03;5033966;28;20217;-63
2021/05/11 14:43:07;;;;;;;4.30;3.90;;;;;;;13.05;100.00;95890.97;5033618;28;20244;-63
2021/05/11 14:45:33;;;;;;;4.20;3.30;;;;;;;12.76;100.00;95888.06;5032406;28;20268;-63
2021/05/11 14:47:58;;;;;;;3.77;3.47;;;;;;;12.69;100.00;95882.28;5033791;28;20229;-63
2021/05/11 14:50:24;;;;;;;3.40;3.10;;;;;;;12.68;100.00;95885.97;5032667;28;20635;-63
2021/05/11 14:52:54;;;;;;;5.27;3.20;;;;;;;12.63;100.00;95879.91;5033613;28;20620;-63
2021/05/11 14:55:20;;;;;;;3.90;3.50;;;;;;;12.55;100.00;95885.69;5017792;28;20175;-64
2021/05/11 14:57:46;;;;;;;3.60;3.30;;;;;;;12.47;100.00;95885.16;5034003;28;20183;-63
2021/05/11 15:00:12;;;;;;;3.30;3.00;;;;;;;12.54;100.00;95889.38;5033932;28;20226;-64
2021/05/11 15:02:38;;;;;;;3.57;3.27;;;;;;;12.67;100.00;95904.63;5032958;28;20195;-64
2021/05/11 15:05:04;;;;;;;3.50;3.20;;;;;;;12.60;100.00;95911.97;5015407;28;20186;-64
2021/05/11 15:07:30;;;;;;;3.10;2.90;;;;;;;12.60;100.00;95907.50;5033287;28;20186;-64
2021/05/11 15:09:55;;;;;;;3.23;2.80;;;;;;;12.57;100.00;95905.41;5024772;28;20183;-64
2021/05/11 15:12:20;;;;;;;2.80;2.60;;;;;;;12.55;100.00;95909.34;5033565;28;20256;-64
2021/05/11 15:14:46;;;;;;;2.70;2.50;;;;;;;12.68;100.00;95919.34;5033686;28;20628;-64
2021/05/11 15:19:51;;;;;;;1.97;1.87;;;;;;;12.44;100.00;95930.34;5033947;28;20187;-64
2021/05/11 15:22:17;;;;;;;2.07;1.90;;;;;;;12.56;100.00;95924.06;5032634;28;20193;-64
2021/05/11 15:24:43;;;;;;;2.07;1.97;;;;;;;12.42;100.00;95921.16;5015247;28;20606;-64
2021/05/11 15:27:08;;;;;;;1.93;1.83;;;;;;;12.44;100.00;95921.66;5015945;28;20237;-66
2021/05/11 15:29:33;;;;;;;2.27;2.10;;;;;;;12.37;100.00;95929.03;5032950;28;20189;-66
2021/05/11 15:31:59;;;;;;;1.80;1.70;;;;;;;12.45;100.00;95931.94;5032896;28;20206;-66
2021/05/11 15:34:25;;;;;;;1.60;1.50;;;;;;;12.37;100.00;95942.16;5031990;28;20187;-65
2021/05/11 15:36:50;;;;;;;1.70;1.60;;;;;;;12.17;100.00;95948.13;5032274;28;20175;-64
2021/05/11 15:39:16;;;;;;;1.70;1.60;;;;;;;12.31;100.00;95948.44;5025624;28;20621;-67
2021/05/11 15:41:42;;;;;;;1.80;1.70;;;;;;;12.24;100.00;95945.25;5031848;28;20206;-65
2021/05/11 15:44:07;;;;;;;1.90;1.70;;;;;;;12.20;100.00;95955.50;5032654;28;20213;-65
2021/05/11 15:46:33;;;;;;;2.30;1.93;;;;;;;12.20;100.00;95950.25;5025226;28;20261;-65
2021/05/11 15:48:58;;;;;;;1.77;1.67;;;;;;;12.03;100.00;95949.66;5032180;28;20198;-65
2021/05/11 15:51:23;;;;;;;4.37;2.03;;;;;;;12.17;100.00;95963.88;5014423;28;20230;-64
2021/05/11 15:53:49;;;;;;;2.20;1.83;;;;;;;12.21;100.00;95974.66;5033753;28;20646;-65
2021/05/11 15:56:14;;;;;;;1.80;1.70;;;;;;;12.30;100.00;95978.41;5032859;28;20189;-64
2021/05/11 15:58:41;;;;;;;1.60;1.50;;;;;;;12.21;100.00;95985.97;5031654;28;20577;-65